createdAt,value
2018-08-11T00:00:28.902Z,101950.12
2018-08-11T00:02:57.573Z,101953.94
2018-08-11T00:05:26.175Z,101967.56
2018-08-11T00:07:54.768Z,101967.36
2018-08-11T00:10:23.362Z,101977.86
2018-08-11T00:12:51.928Z,101989.31
2018-08-11T00:15:21.219Z,101980.15
2018-08-11T00:17:49.842Z,101987.47
2018-08-11T00:20:33.082Z,102004.81
2018-08-11T00:23:01.636Z,102001.27
2018-08-11T00:25:30.505Z,101992.87
2018-08-11T00:27:59.129Z,101984.31
2018-08-11T00:30:58.010Z,101989.05
2018-08-11T00:33:26.559Z,101989.44
2018-08-11T00:35:55.059Z,101995.75
2018-08-11T00:38:23.526Z,101986.95
2018-08-11T00:40:52.013Z,101984.73
2018-08-11T00:43:20.527Z,101998.41
2018-08-11T00:45:49.101Z,101993.06
2018-08-11T00:48:18.111Z,101988.67
2018-08-11T00:50:46.690Z,101983.41
2018-08-11T00:53:15.292Z,101969.70
2018-08-11T00:55:43.868Z,101965.31
2018-08-11T00:58:12.410Z,101963.13
2018-08-11T01:00:40.882Z,101950.83
2018-08-11T01:03:10.521Z,101937.20
2018-08-11T01:05:52.089Z,101952.73
2018-08-11T01:08:20.589Z,101952.73
2018-08-11T01:10:49.062Z,101946.97
2018-08-11T01:13:17.663Z,101940.81
2018-08-11T01:15:46.257Z,101934.20
2018-08-11T01:18:20.448Z,101936.50
2018-08-11T01:20:53.784Z,101932.56
2018-08-11T01:23:22.253Z,101936.53
2018-08-11T01:25:50.801Z,101949.31
2018-08-11T01:28:19.257Z,101946.16
2018-08-11T01:30:47.819Z,101954.06
2018-08-11T01:33:18.622Z,101957.48
2018-08-11T01:35:47.174Z,101957.44
2018-08-11T01:38:15.756Z,101961.11
2018-08-11T01:40:44.249Z,101966.13
2018-08-11T01:43:12.782Z,101961.92
2018-08-11T01:45:41.334Z,101955.89
2018-08-11T01:48:09.924Z,101958.14
2018-08-11T01:50:38.498Z,101958.61
2018-08-11T01:53:07.072Z,101963.91
2018-08-11T01:55:35.563Z,101963.44
2018-08-11T01:58:04.028Z,101956.74
2018-08-11T02:00:32.513Z,101954.88
2018-08-11T02:03:01.045Z,101958.38
2018-08-11T02:05:29.622Z,101960.83
2018-08-11T02:07:58.098Z,101954.06
2018-08-11T02:10:26.648Z,101954.37
2018-08-11T02:12:55.118Z,101952.88
2018-08-11T02:15:23.635Z,101961.60
2018-08-11T02:17:52.139Z,101958.83
2018-08-11T02:20:20.678Z,101949.41
2018-08-11T02:22:49.953Z,101954.14
2018-08-11T02:25:18.452Z,101952.27
2018-08-11T02:27:46.944Z,101949.49
2018-08-11T02:30:17.426Z,101955.55
2018-08-11T02:32:46.351Z,101954.58
2018-08-11T02:35:15.243Z,101953.16
2018-08-11T02:37:44.337Z,101958.38
2018-08-11T02:40:15.426Z,101954.70
2018-08-11T02:42:44.025Z,101955.51
2018-08-11T02:45:14.333Z,101956.41
2018-08-11T02:47:42.839Z,101958.11
2018-08-11T02:50:13.309Z,101956.36
2018-08-11T02:52:42.315Z,101959.34
2018-08-11T02:55:11.008Z,101956.23
2018-08-11T02:57:40.690Z,101959.81
2018-08-11T03:00:10.921Z,101960.28
2018-08-11T03:02:39.458Z,101963.88
2018-08-11T03:05:07.974Z,101969.16
2018-08-11T03:07:36.832Z,101958.11
2018-08-11T03:10:06.539Z,101966.52
2018-08-11T03:12:38.676Z,101963.41
2018-08-11T03:15:08.446Z,101968.69
2018-08-11T03:17:37.084Z,101976.06
2018-08-11T03:20:08.215Z,101970.35
2018-08-11T03:22:36.771Z,101977.34
2018-08-11T03:25:06.716Z,101974.19
2018-08-11T03:27:35.285Z,101989.25
2018-08-11T03:30:04.213Z,101994.02
2018-08-11T03:32:33.085Z,101992.75
2018-08-11T03:35:01.553Z,102002.05
2018-08-11T03:37:30.134Z,102004.13
2018-08-11T03:39:58.609Z,102004.04
2018-08-11T03:42:27.155Z,102001.30
2018-08-11T03:44:55.625Z,102007.87
2018-08-11T03:47:24.574Z,101998.66
2018-08-11T03:49:53.157Z,102004.28
2018-08-11T03:52:21.737Z,102005.98
2018-08-11T03:54:50.219Z,102005.56
2018-08-11T03:57:18.716Z,102006.41
2018-08-11T03:59:47.293Z,102014.86
2018-08-11T04:02:17.646Z,102015.76
2018-08-11T04:04:46.169Z,102015.66
2018-08-11T04:07:14.698Z,102014.62
2018-08-11T04:09:43.169Z,102012.36
2018-08-11T04:12:11.633Z,102025.20
2018-08-11T04:14:40.865Z,102024.88
2018-08-11T04:17:23.763Z,102035.88
2018-08-11T04:19:52.200Z,102034.45
2018-08-11T04:22:20.928Z,102039.37
2018-08-11T04:24:49.412Z,102036.30
2018-08-11T04:27:18.003Z,102042.91
2018-08-11T04:29:46.477Z,102042.11
2018-08-11T04:32:14.951Z,102045.70
2018-08-11T04:34:43.465Z,102045.65
2018-08-11T04:37:11.948Z,102047.45
2018-08-11T04:39:40.596Z,102050.04
2018-08-11T04:42:09.065Z,102047.02
2018-08-11T04:44:37.606Z,102044.84
2018-08-11T04:47:06.129Z,102052.78
2018-08-11T04:49:34.639Z,102054.15
2018-08-11T04:52:03.153Z,102062.18
2018-08-11T04:54:31.732Z,102064.39
2018-08-11T04:57:00.174Z,102066.19
2018-08-11T04:59:28.774Z,102071.48
2018-08-11T05:01:57.553Z,102074.22
2018-08-11T05:04:26.028Z,102073.84
2018-08-11T05:06:54.519Z,102082.34
2018-08-11T05:09:23.218Z,102083.28
2018-08-11T05:11:51.861Z,102086.41
2018-08-11T05:16:47.008Z,102092.83
2018-08-11T05:19:15.498Z,102097.79
2018-08-11T05:21:43.939Z,102100.95
2018-08-11T05:24:12.602Z,102094.05
2018-08-11T05:26:41.199Z,102095.46
2018-08-11T05:29:09.752Z,102095.55
2018-08-11T05:31:38.203Z,102102.73
2018-08-11T05:34:06.811Z,102098.86
2018-08-11T05:36:35.409Z,102098.56
2018-08-11T05:39:05.065Z,102110.14
2018-08-11T05:41:33.599Z,102105.88
2018-08-11T05:44:02.170Z,102106.91
2018-08-11T05:46:30.743Z,102111.13
2018-08-11T05:48:59.263Z,102116.90
2018-08-11T05:51:27.807Z,102122.38
2018-08-11T05:53:56.432Z,102126.81
2018-08-11T05:56:24.934Z,102128.61
2018-08-11T05:58:53.557Z,102120.83
2018-08-11T06:01:22.056Z,102129.33
2018-08-11T06:03:50.588Z,102132.96
2018-08-11T06:06:19.122Z,102135.70
2018-08-11T06:08:47.706Z,102132.80
2018-08-11T06:11:16.259Z,102140.87
2018-08-11T06:13:44.701Z,102143.69
2018-08-11T06:16:13.377Z,102152.19
2018-08-11T06:18:41.936Z,102153.13
2018-08-11T06:21:10.479Z,102156.28
2018-08-11T06:23:39.106Z,102160.43
2018-08-11T06:26:08.022Z,102160.00
2018-08-11T06:28:36.661Z,102156.58
2018-08-11T06:31:05.325Z,102157.59
2018-08-11T06:33:33.849Z,102162.98
2018-08-11T06:36:02.355Z,102166.61
2018-08-11T06:38:30.833Z,102159.72
2018-08-11T06:40:59.566Z,102157.19
2018-08-11T06:43:27.854Z,102161.36
2018-08-11T06:45:56.396Z,102161.55
2018-08-11T06:48:24.882Z,102162.06
2018-08-11T06:50:55.112Z,102161.31
2018-08-11T06:53:23.613Z,102161.47
2018-08-11T06:55:52.062Z,102171.77
2018-08-11T06:58:20.677Z,102173.20
2018-08-11T07:00:49.193Z,102177.77
2018-08-11T07:03:17.665Z,102173.93
2018-08-11T07:05:46.174Z,102179.34
2018-08-11T07:08:14.866Z,102185.23
2018-08-11T07:10:43.534Z,102180.58
2018-08-11T07:13:12.024Z,102175.84
2018-08-11T07:15:40.589Z,102175.09
2018-08-11T07:18:09.105Z,102180.06
2018-08-11T07:20:37.681Z,102185.48
2018-08-11T07:23:06.320Z,102182.47
2018-08-11T07:25:34.968Z,102186.69
2018-08-11T07:28:03.564Z,102196.59
2018-08-11T07:30:32.210Z,102193.63
2018-08-11T07:33:00.846Z,102188.39
2018-08-11T07:35:29.402Z,102195.00
2018-08-11T07:37:57.973Z,102197.28
2018-08-11T07:40:26.546Z,102200.11
2018-08-11T07:42:55.128Z,102204.32
2018-08-11T07:45:23.712Z,102203.19
2018-08-11T07:47:52.296Z,102202.54
2018-08-11T07:50:20.908Z,102202.72
2018-08-11T07:52:49.361Z,102209.95
2018-08-11T07:55:18.048Z,102218.03
2018-08-11T07:57:46.648Z,102211.75
2018-08-11T08:00:15.247Z,102220.28
2018-08-11T08:02:43.973Z,102225.31
2018-08-11T08:05:12.633Z,102223.93
2018-08-11T08:07:41.291Z,102221.49
2018-08-11T08:10:09.820Z,102213.67
2018-08-11T08:12:38.467Z,102221.25
2018-08-11T08:15:07.424Z,102225.70
2018-08-11T08:17:35.960Z,102227.00
2018-08-11T08:20:05.174Z,102222.59
2018-08-11T08:22:33.752Z,102214.44
2018-08-11T08:25:02.295Z,102213.52
2018-08-11T08:27:30.764Z,102212.25
2018-08-11T08:29:59.389Z,102206.70
2018-08-11T08:32:27.953Z,102210.23
2018-08-11T08:34:56.522Z,102211.98
2018-08-11T08:37:25.116Z,102208.48
2018-08-11T08:39:53.814Z,102208.35
2018-08-11T08:42:22.422Z,102207.00
2018-08-11T08:44:51.060Z,102209.25
2018-08-11T08:47:19.511Z,102210.78
2018-08-11T08:49:48.068Z,102216.89
2018-08-11T08:52:17.012Z,102218.69
2018-08-11T08:54:46.116Z,102219.58
2018-08-11T08:57:14.943Z,102222.95
2018-08-11T08:59:43.697Z,102215.66
2018-08-11T09:02:12.158Z,102216.16
2018-08-11T09:04:40.811Z,102209.92
2018-08-11T09:07:09.291Z,102208.34
2018-08-11T09:09:37.937Z,102206.14
2018-08-11T09:12:06.805Z,102201.58
2018-08-11T09:14:35.240Z,102215.01
2018-08-11T09:17:03.691Z,102217.84
2018-08-11T09:19:32.308Z,102218.78
2018-08-11T09:22:00.856Z,102215.39
2018-08-11T09:24:29.425Z,102222.79
2018-08-11T09:26:57.909Z,102233.48
2018-08-11T09:29:26.393Z,102231.78
2018-08-11T09:31:54.994Z,102227.70
2018-08-11T09:34:23.599Z,102232.27
2018-08-11T09:37:40.154Z,102230.72
2018-08-11T09:40:08.785Z,102222.59
2018-08-11T09:42:37.347Z,102221.88
2018-08-11T09:45:06.262Z,102220.63
2018-08-11T09:47:34.800Z,102225.12
2018-08-11T09:50:03.357Z,102213.72
2018-08-11T09:52:31.818Z,102221.81
2018-08-11T09:55:00.566Z,102206.91
2018-08-11T09:57:29.161Z,102219.70
2018-08-11T09:59:57.666Z,102219.92
2018-08-11T10:02:26.341Z,102207.69
2018-08-11T10:04:54.816Z,102208.28
2018-08-11T10:07:23.380Z,102203.59
2018-08-11T10:09:51.863Z,102218.26
2018-08-11T10:12:20.365Z,102219.38
2018-08-11T10:14:49.001Z,102210.95
2018-08-11T10:17:17.503Z,102213.17
2018-08-11T10:19:46.113Z,102211.36
2018-08-11T10:22:14.788Z,102206.78
2018-08-11T10:24:43.268Z,102213.02
2018-08-11T10:27:11.864Z,102209.87
2018-08-11T10:29:40.433Z,102195.41
2018-08-11T10:32:08.965Z,102213.75
2018-08-11T10:34:37.499Z,102215.05
2018-08-11T10:37:06.069Z,102208.89
2018-08-11T10:39:34.572Z,102214.33
2018-08-11T10:42:03.059Z,102208.59
2018-08-11T10:44:31.639Z,102208.59
2018-08-11T10:47:00.114Z,102202.18
2018-08-11T10:49:28.690Z,102203.27
2018-08-11T10:51:57.243Z,102209.86
2018-08-11T10:54:25.859Z,102209.43
2018-08-11T10:56:54.477Z,102215.52
2018-08-11T10:59:22.921Z,102203.23
2018-08-11T11:01:51.519Z,102201.95
2018-08-11T11:04:20.229Z,102210.84
2018-08-11T11:06:48.813Z,102206.45
2018-08-11T11:09:17.358Z,102217.61
2018-08-11T11:12:14.445Z,102204.66
2018-08-11T11:14:43.000Z,102199.75
2018-08-11T11:17:11.460Z,102205.05
2018-08-11T11:19:39.931Z,102209.48
2018-08-11T11:22:08.458Z,102211.22
2018-08-11T11:24:36.928Z,102205.84
2018-08-11T11:27:05.665Z,102218.38
2018-08-11T11:29:34.404Z,102218.80
2018-08-11T11:32:02.928Z,102222.72
2018-08-11T11:34:31.507Z,102224.02
2018-08-11T11:37:00.078Z,102220.59
2018-08-11T11:39:28.654Z,102201.52
2018-08-11T11:41:57.282Z,102205.99
2018-08-11T11:44:26.021Z,102202.39
2018-08-11T11:46:54.585Z,102204.48
2018-08-11T11:49:23.112Z,102203.75
2018-08-11T11:51:51.572Z,102201.53
2018-08-11T11:54:20.068Z,102198.39
2018-08-11T11:56:48.648Z,102196.02
2018-08-11T11:59:17.217Z,102201.50
2018-08-11T12:01:45.783Z,102197.05
2018-08-11T12:04:14.349Z,102203.77
2018-08-11T12:06:42.852Z,102196.16
2018-08-11T12:09:11.862Z,102187.95
2018-08-11T12:11:40.657Z,102186.77
2018-08-11T12:14:09.425Z,102183.19
2018-08-11T12:16:38.124Z,102198.32
2018-08-11T12:19:06.838Z,102185.42
2018-08-11T12:21:35.501Z,102194.83
2018-08-11T12:24:04.036Z,102191.71
2018-08-11T12:26:32.512Z,102196.17
2018-08-11T12:29:01.004Z,102189.47
2018-08-11T12:31:29.533Z,102192.15
2018-08-11T12:33:57.999Z,102193.33
2018-08-11T12:36:26.651Z,102174.97
2018-08-11T12:38:55.369Z,102181.11
2018-08-11T12:41:24.128Z,102177.69
2018-08-11T12:43:52.750Z,102173.76
2018-08-11T12:46:21.326Z,102174.09
2018-08-11T12:48:49.814Z,102170.94
2018-08-11T12:51:18.384Z,102174.38
2018-08-11T12:53:46.906Z,102159.39
2018-08-11T12:56:15.868Z,102161.06
2018-08-11T12:58:44.329Z,102165.26
2018-08-11T13:01:13.080Z,102166.06
2018-08-11T13:03:41.630Z,102166.98
2018-08-11T13:06:10.310Z,102164.48
2018-08-11T13:08:38.818Z,102161.14
2018-08-11T13:11:07.467Z,102160.42
2018-08-11T13:13:36.169Z,102166.38
2018-08-11T13:16:04.768Z,102172.81
2018-08-11T13:18:33.377Z,102163.88
2018-08-11T13:21:02.227Z,102161.97
2018-08-11T13:23:30.963Z,102155.23
2018-08-11T13:25:59.553Z,102151.27
2018-08-11T13:28:28.063Z,102149.59
2018-08-11T13:30:56.671Z,102147.89
2018-08-11T13:33:25.671Z,102153.86
2018-08-11T13:35:54.344Z,102147.22
2018-08-11T13:38:22.929Z,102148.70
2018-08-11T13:40:51.504Z,102146.42
2018-08-11T13:43:20.082Z,102145.44
2018-08-11T13:45:48.681Z,102141.81
2018-08-11T13:48:17.499Z,102151.48
2018-08-11T13:50:46.383Z,102155.87
2018-08-11T13:53:22.324Z,102149.56
2018-08-11T13:55:50.888Z,102141.58
2018-08-11T13:58:20.040Z,102139.75
2018-08-11T14:00:48.787Z,102138.44
2018-08-11T14:03:45.343Z,102127.34
2018-08-11T14:06:14.133Z,102128.28
2018-08-11T14:08:42.678Z,102129.42
2018-08-11T14:11:11.576Z,102128.58
2018-08-11T14:13:40.321Z,102137.45
2018-08-11T14:16:08.998Z,102141.25
2018-08-11T14:18:37.638Z,102134.59
2018-08-11T14:21:06.513Z,102133.82
2018-08-11T14:23:35.004Z,102138.87
2018-08-11T14:26:03.971Z,102138.85
2018-08-11T14:29:00.366Z,102135.75
2018-08-11T14:31:29.340Z,102138.00
2018-08-11T14:33:58.223Z,102132.58
2018-08-11T14:36:28.884Z,102129.38
2018-08-11T14:38:57.847Z,102131.03
2018-08-11T14:41:27.400Z,102138.08
2018-08-11T14:43:56.174Z,102139.41
2018-08-11T14:46:24.740Z,102134.45
2018-08-11T14:48:53.546Z,102129.77
2018-08-11T14:51:22.238Z,102133.27
2018-08-11T14:53:50.891Z,102130.97
2018-08-11T14:56:19.564Z,102130.48
2018-08-11T14:58:48.059Z,102130.56
2018-08-11T15:01:16.634Z,102118.63
2018-08-11T15:03:45.539Z,102119.08
2018-08-11T15:06:14.084Z,102124.05
2018-08-11T15:08:42.834Z,102117.45
2018-08-11T15:11:11.620Z,102117.70
2018-08-11T15:13:40.398Z,102114.52
2018-08-11T15:16:09.020Z,102116.38
2018-08-11T15:18:37.957Z,102119.06
2018-08-11T15:21:06.584Z,102111.42
2018-08-11T15:23:36.745Z,102117.55
2018-08-11T15:26:05.346Z,102120.04
2018-08-11T15:28:33.888Z,102112.20
2018-08-11T15:31:02.553Z,102117.30
2018-08-11T15:33:31.188Z,102107.53
2018-08-11T15:35:59.776Z,102106.00
2018-08-11T15:38:28.427Z,102115.63
2018-08-11T15:40:57.245Z,102111.36
2018-08-11T15:43:25.963Z,102114.98
2018-08-11T15:45:54.527Z,102101.17
2018-08-11T15:48:23.354Z,102107.14
2018-08-11T15:50:51.872Z,102108.15
2018-08-11T15:53:20.376Z,102103.88
2018-08-11T15:55:48.862Z,102106.95
2018-08-11T15:58:17.450Z,102102.40
2018-08-11T16:00:46.210Z,102107.34
2018-08-11T16:03:15.069Z,102099.45
2018-08-11T16:05:43.680Z,102097.25
2018-08-11T16:08:12.283Z,102098.75
2018-08-11T16:10:41.089Z,102096.79
2018-08-11T16:13:09.931Z,102093.01
2018-08-11T16:15:38.600Z,102091.05
2018-08-11T16:18:07.141Z,102092.77
2018-08-11T16:20:35.900Z,102094.22
2018-08-11T16:23:05.372Z,102095.59
2018-08-11T16:25:33.914Z,102098.73
2018-08-11T16:28:02.702Z,102097.16
2018-08-11T16:30:31.701Z,102099.58
2018-08-11T16:33:01.586Z,102100.98
2018-08-11T16:35:30.117Z,102108.58
2018-08-11T16:37:58.922Z,102097.98
2018-08-11T16:40:28.107Z,102102.02
2018-08-11T16:42:57.132Z,102102.06
2018-08-11T16:45:26.336Z,102098.05
2018-08-11T16:47:55.839Z,102102.10
2018-08-11T16:50:24.673Z,102107.01
2018-08-11T16:52:53.109Z,102101.69
2018-08-11T16:55:22.070Z,102100.89
2018-08-11T16:57:50.744Z,102101.34
2018-08-11T17:00:21.064Z,102105.42
2018-08-11T17:02:49.692Z,102103.31
2018-08-11T17:05:18.528Z,102098.88
2018-08-11T17:07:47.115Z,102095.29
2018-08-11T17:10:15.932Z,102088.57
2018-08-11T17:12:45.078Z,102093.00
2018-08-11T17:15:15.303Z,102090.72
2018-08-11T17:17:44.090Z,102084.48
2018-08-11T17:20:12.589Z,102084.07
2018-08-11T17:22:41.345Z,102081.92
2018-08-11T17:25:10.763Z,102081.93
2018-08-11T17:27:39.200Z,102086.44
2018-08-11T17:30:14.975Z,102090.47
2018-08-11T17:32:43.877Z,102084.21
2018-08-11T17:35:13.101Z,102085.16
2018-08-11T17:37:42.644Z,102076.23
2018-08-11T17:40:11.107Z,102083.37
2018-08-11T17:42:39.670Z,102079.73
2018-08-11T17:45:08.253Z,102078.26
2018-08-11T17:47:36.756Z,102077.87
2018-08-11T17:50:10.780Z,102077.02
2018-08-11T17:52:39.726Z,102074.84
2018-08-11T17:55:09.736Z,102079.41
2018-08-11T17:57:38.634Z,102081.70
2018-08-11T18:00:07.704Z,102085.79
2018-08-11T18:02:37.256Z,102080.42
2018-08-11T18:05:06.284Z,102079.98
2018-08-11T18:07:35.128Z,102078.24
2018-08-11T18:10:03.757Z,102081.40
2018-08-11T18:12:33.781Z,102079.64
2018-08-11T18:15:02.868Z,102076.55
2018-08-11T18:17:31.640Z,102076.97
2018-08-11T18:20:36.032Z,102081.44
2018-08-11T18:23:05.479Z,102075.58
2018-08-11T18:25:34.051Z,102071.55
2018-08-11T18:28:03.011Z,102070.64
2018-08-11T18:30:32.029Z,102074.17
2018-08-11T18:33:00.859Z,102073.19
2018-08-11T18:35:29.875Z,102078.03
2018-08-11T18:37:58.784Z,102077.06
2018-08-11T18:40:32.259Z,102078.32
2018-08-11T18:43:00.768Z,102078.69
2018-08-11T18:45:29.272Z,102082.09
2018-08-11T18:47:57.840Z,102077.07
2018-08-11T18:50:26.784Z,102073.86
2018-08-11T18:53:10.665Z,102079.05
2018-08-11T18:55:39.806Z,102075.78
2018-08-11T18:58:08.281Z,102073.42
2018-08-11T19:00:37.239Z,102076.80
2018-08-11T19:03:05.937Z,102079.76
2018-08-11T19:05:34.530Z,102083.20
2018-08-11T19:08:03.968Z,102086.17
2018-08-11T19:10:33.161Z,102090.42
2018-08-11T19:13:01.724Z,102090.70
2018-08-11T19:15:30.193Z,102095.88
2018-08-11T19:17:58.881Z,102093.92
2018-08-11T19:20:27.581Z,102095.04
2018-08-11T19:22:56.757Z,102098.44
2018-08-11T19:25:25.956Z,102102.26
2018-08-11T19:27:55.121Z,102098.07
2018-08-11T19:30:23.776Z,102101.03
2018-08-11T19:32:52.772Z,102102.22
2018-08-11T19:35:21.274Z,102095.38
2018-08-11T19:37:50.718Z,102098.73
2018-08-11T19:40:36.970Z,102098.14
2018-08-11T19:43:06.068Z,102097.02
2018-08-11T19:45:34.962Z,102099.50
2018-08-11T19:48:04.147Z,102099.79
2018-08-11T19:50:32.992Z,102104.55
2018-08-11T19:53:01.577Z,102099.98
2018-08-11T19:55:30.541Z,102093.61
2018-08-11T19:57:59.477Z,102094.36
2018-08-11T20:00:28.815Z,102092.91
2018-08-11T20:02:57.371Z,102101.20
2018-08-11T20:05:26.246Z,102099.16
2018-08-11T20:07:55.396Z,102098.56
2018-08-11T20:10:24.811Z,102090.95
2018-08-11T20:12:53.626Z,102098.39
2018-08-11T20:15:22.121Z,102097.83
2018-08-11T20:17:51.363Z,102097.55
2018-08-11T20:20:20.341Z,102093.39
2018-08-11T20:22:49.495Z,102092.57
2018-08-11T20:25:18.072Z,102092.59
2018-08-11T20:27:46.704Z,102090.63
2018-08-11T20:30:15.632Z,102091.09
2018-08-11T20:32:44.231Z,102089.22
2018-08-11T20:35:12.800Z,102089.14
2018-08-11T20:37:42.130Z,102089.50
2018-08-11T20:40:10.755Z,102088.56
2018-08-11T20:42:39.410Z,102093.20
2018-08-11T20:45:09.164Z,102090.31
2018-08-11T20:47:37.953Z,102091.02
2018-08-11T20:50:07.255Z,102090.55
2018-08-11T20:52:35.805Z,102086.41
2018-08-11T20:55:05.041Z,102088.04
2018-08-11T20:57:33.619Z,102082.58
2018-08-11T21:00:02.221Z,102084.98
2018-08-11T21:02:30.748Z,102090.66
2018-08-11T21:04:59.362Z,102084.34
2018-08-11T21:07:27.912Z,102088.19
2018-08-11T21:09:56.517Z,102086.28
2018-08-11T21:12:25.133Z,102084.06
2018-08-11T21:14:53.908Z,102085.38
2018-08-11T21:17:22.481Z,102079.06
2018-08-11T21:20:14.951Z,102074.53
2018-08-11T21:22:43.514Z,102078.77
2018-08-11T21:25:12.522Z,102075.47
2018-08-11T21:27:41.081Z,102074.58
2018-08-11T21:30:12.013Z,102073.03
2018-08-11T21:32:40.835Z,102073.67
2018-08-11T21:35:09.832Z,102075.23
2018-08-11T21:37:38.423Z,102072.92
2018-08-11T21:40:13.008Z,102073.82
2018-08-11T21:42:41.939Z,102073.44
2018-08-11T21:45:39.073Z,102070.80
2018-08-11T21:48:07.657Z,102064.13
2018-08-11T21:50:36.189Z,102069.72
2018-08-11T21:53:04.804Z,102072.23
2018-08-11T21:55:33.538Z,102069.63
2018-08-11T21:58:02.104Z,102067.87
2018-08-11T22:00:33.852Z,102065.66
2018-08-11T22:03:03.596Z,102065.09
2018-08-11T22:05:32.254Z,102061.08
2018-08-11T22:08:01.726Z,102060.56
2018-08-11T22:10:30.626Z,102057.48
2018-08-11T22:12:59.395Z,102052.20
2018-08-11T22:15:28.285Z,102054.38
2018-08-11T22:17:56.909Z,102053.05
2018-08-11T22:20:25.509Z,102050.74
2018-08-11T22:23:30.144Z,102055.00
2018-08-11T22:25:58.678Z,102046.45
2018-08-11T22:28:27.203Z,102050.32
2018-08-11T22:31:03.907Z,102047.91
2018-08-11T22:33:32.564Z,102041.92
2018-08-11T22:36:01.162Z,102047.20
2018-08-11T22:38:29.711Z,102046.92
2018-08-11T22:40:58.285Z,102042.11
2018-08-11T22:43:26.897Z,102036.39
2018-08-11T22:45:55.491Z,102036.81
2018-08-11T22:48:24.075Z,102034.17
2018-08-11T22:50:52.652Z,102028.70
2018-08-11T22:53:21.250Z,102027.66
2018-08-11T22:55:49.769Z,102030.20
2018-08-11T22:58:18.509Z,102021.33
2018-08-11T23:00:47.093Z,102024.73
2018-08-11T23:03:15.629Z,102018.64
2018-08-11T23:05:44.159Z,102016.47
2018-08-11T23:08:12.708Z,102016.37
2018-08-11T23:10:41.312Z,102013.21
2018-08-11T23:13:09.872Z,102016.89
2018-08-11T23:15:38.577Z,102007.69
2018-08-11T23:18:07.164Z,102000.18
2018-08-11T23:20:35.689Z,102001.97
2018-08-11T23:23:04.321Z,101999.00
2018-08-11T23:25:32.913Z,101996.73
2018-08-11T23:28:01.502Z,101993.20
2018-08-11T23:30:29.953Z,101988.09
2018-08-11T23:32:58.570Z,101984.94
2018-08-11T23:35:27.068Z,101988.38
2018-08-11T23:37:56.879Z,101986.25
2018-08-11T23:40:25.430Z,101990.84
2018-08-11T23:42:54.072Z,101984.18
2018-08-11T23:45:22.605Z,101983.75
2018-08-11T23:47:51.195Z,101981.20
2018-08-11T23:50:19.772Z,101977.80
2018-08-11T23:52:48.549Z,101976.48
2018-08-11T23:55:17.054Z,101976.15
2018-08-11T23:57:45.646Z,101968.83
